Time;durP1;ratioP1;P1;durP2;ratioP2;P2;SDS_P1;SDS_P2;PMS_P1;PMS_P2;Temp;Humidity;BMP_temperature;BMP_pressure;BME280_temperature;BME280_humidity;BME280_pressure;Samples;Min_cycle;Max_cycle;Signal;HPM_P1;HPM_P2
2023/01/20 00:01:14;;;;;;;2.90;2.78;;;;;;;-1.84;100.00;100526.22;6008571;23;20019;-68
2023/01/20 00:03:41;;;;;;;3.33;3.20;;;;;;;-1.91;100.00;100506.50;6033290;23;20118;-67
2023/01/20 00:06:08;;;;;;;4.30;4.05;;;;;;;-1.57;100.00;100562.09;6003866;23;20537;-68
2023/01/20 00:08:35;;;;;;;4.22;3.50;;;;;;;-1.53;100.00;100559.50;6015245;23;20034;-68
2023/01/20 00:11:06;;;;;;;3.60;3.38;;;;;;;-1.25;100.00;100605.69;6021554;23;20481;-68
2023/01/20 00:13:34;;;;;;;4.27;3.43;;;;;;;-1.36;100.00;100592.03;6035685;23;20026;-68
2023/01/20 00:16:05;;;;;;;4.15;3.05;;;;;;;-1.19;100.00;100608.25;5990994;23;20019;-68
2023/01/20 00:18:33;;;;;;;3.10;2.90;;;;;;;-1.15;100.00;100611.66;6008415;23;20429;-68
2023/01/20 00:21:08;;;;;;;3.22;3.13;;;;;;;-1.12;100.00;100612.50;6007731;23;20077;-68
2023/01/20 00:23:35;;;;;;;3.22;3.13;;;;;;;-1.37;100.00;100565.44;6009049;23;20034;-69
2023/01/20 00:26:10;;;;;;;4.45;4.03;;;;;;;-1.10;100.00;100615.06;6012159;23;20101;-67
2023/01/20 00:28:37;;;;;;;3.22;3.03;;;;;;;-1.08;100.00;100627.06;6032255;23;20527;-67
2023/01/20 00:31:23;;;;;;;3.47;3.28;;;;;;;-1.07;100.00;100630.50;6009892;23;20012;-67
2023/01/20 00:33:51;;;;;;;3.53;3.38;;;;;;;-1.05;100.00;100624.47;6006663;23;20034;-67
2023/01/20 00:36:19;;;;;;;3.13;3.03;;;;;;;-1.04;100.00;100625.34;6003524;23;20011;-67
2023/01/20 00:38:45;;;;;;;3.88;3.63;;;;;;;-1.03;100.00;100627.03;6039019;23;20046;-67
2023/01/20 00:41:13;;;;;;;3.08;2.88;;;;;;;-1.01;100.00;100635.63;6012840;23;20011;-67
2023/01/20 00:43:39;;;;;;;3.03;2.92;;;;;;;-1.01;100.00;100630.47;6030083;23;20501;-67
2023/01/20 00:46:06;;;;;;;4.30;4.00;;;;;;;-1.07;100.00;100621.03;6006200;23;20098;-67
2023/01/20 00:48:34;;;;;;;3.65;3.45;;;;;;;-1.01;100.00;100633.03;6031221;23;20032;-67
2023/01/20 00:51:04;;;;;;;3.28;3.15;;;;;;;-2.61;100.00;100374.84;5998103;23;20518;-67
2023/01/20 00:53:30;;;;;;;4.25;3.88;;;;;;;-1.24;100.00;100615.16;6009376;23;20351;-68
2023/01/20 00:55:57;;;;;;;3.78;3.50;;;;;;;-0.93;100.00;100645.88;6008227;23;20026;-68
2023/01/20 00:58:23;;;;;;;4.78;4.22;;;;;;;-1.16;100.00;100607.34;6014179;23;20038;-68
2023/01/20 01:00:51;;;;;;;3.72;3.53;;;;;;;-0.94;100.00;100644.16;6012176;23;20023;-68
2023/01/20 01:03:21;;;;;;;3.53;3.33;;;;;;;-0.90;100.00;100638.13;6032793;23;20438;-68
2023/01/20 01:05:47;;;;;;;3.45;3.25;;;;;;;-2.84;100.00;100341.53;6012281;23;20025;-68
2023/01/20 01:08:14;;;;;;;4.18;3.53;;;;;;;-0.88;100.00;100659.56;6037899;23;20011;-68
2023/01/20 01:10:40;;;;;;;4.10;3.80;;;;;;;-0.92;100.00;100653.59;6005202;23;20024;-67
2023/01/20 01:13:07;;;;;;;4.65;4.32;;;;;;;-1.04;100.00;100669.97;6034296;23;20034;-67
2023/01/20 01:15:34;;;;;;;4.57;4.20;;;;;;;-1.41;100.00;100605.75;6036591;23;20513;-67
2023/01/20 01:18:01;;;;;;;3.50;3.30;;;;;;;-0.97;100.00;100657.06;6033462;23;20362;-68
2023/01/20 01:20:28;;;;;;;3.88;3.65;;;;;;;-1.29;100.00;100601.44;6004274;23;20022;-67
2023/01/20 01:22:54;;;;;;;3.75;3.53;;;;;;;-0.95;100.00;100656.19;6035518;23;20063;-68
2023/01/20 01:25:21;;;;;;;3.90;3.60;;;;;;;-0.68;100.00;100680.06;6013117;23;20038;-68
2023/01/20 01:27:47;;;;;;;2.95;2.85;;;;;;;-0.59;100.00;100676.59;6035300;23;20033;-67
2023/01/20 01:30:14;;;;;;;4.18;3.88;;;;;;;-0.51;100.00;100682.53;6027013;23;20603;-67
2023/01/20 01:32:40;;;;;;;2.97;2.88;;;;;;;-0.52;100.00;100683.41;6012279;23;20094;-68
2023/01/20 01:35:07;;;;;;;4.13;3.83;;;;;;;-0.50;100.00;100684.25;6009039;23;20007;-68
2023/01/20 01:37:33;;;;;;;3.08;2.97;;;;;;;-0.49;100.00;100711.75;6037684;23;20057;-67
2023/01/20 01:40:00;;;;;;;4.18;3.97;;;;;;;-0.63;100.00;100657.72;6003501;23;20038;-68
2023/01/20 01:42:27;;;;;;;3.40;3.30;;;;;;;-0.69;100.00;100642.28;6039717;23;20026;-68
2023/01/20 01:45:08;;;;;;;3.65;3.45;;;;;;;-0.37;100.00;100697.91;6031760;23;20023;-69
2023/01/20 01:47:38;;;;;;;3.72;3.30;;;;;;;-0.30;100.00;100704.72;6031238;23;20027;-67
2023/01/20 01:50:10;;;;;;;4.90;4.60;;;;;;;-0.81;100.00;100626.03;6002215;23;20600;-68
2023/01/20 01:52:40;;;;;;;3.88;3.67;;;;;;;-0.39;100.00;100697.06;6035126;23;20027;-68
2023/01/20 01:55:07;;;;;;;5.07;4.35;;;;;;;-0.44;100.00;100685.06;6005472;23;20650;-68
2023/01/20 01:57:34;;;;;;;3.15;2.95;;;;;;;-0.29;100.00;100704.72;6042792;23;20076;-67
2023/01/20 02:00:02;;;;;;;3.97;3.75;;;;;;;-0.58;100.00;100661.13;6011121;23;20054;-68
2023/01/20 02:02:29;;;;;;;4.10;3.70;;;;;;;-0.46;100.00;100686.81;6005070;23;20088;-67
2023/01/20 02:04:55;;;;;;;4.50;4.07;;;;;;;-0.36;100.00;100684.16;6000541;23;20023;-67
2023/01/20 02:07:21;;;;;;;5.03;4.53;;;;;;;-0.25;100.00;100693.50;6038669;23;20034;-67
2023/01/20 02:09:48;;;;;;;3.47;3.28;;;;;;;-0.71;100.00;100619.09;6032803;23;20033;-68
2023/01/20 02:12:18;;;;;;;3.30;3.10;;;;;;;-0.41;100.00;100673.88;6036044;23;20040;-67
2023/01/20 02:14:50;;;;;;;3.47;3.28;;;;;;;-0.24;100.00;100702.09;6003825;23;20015;-68
2023/01/20 02:17:24;;;;;;;4.18;3.88;;;;;;;-0.17;100.00;100708.94;6038172;23;20098;-67
2023/01/20 02:20:00;;;;;;;3.47;3.28;;;;;;;-0.12;100.00;100698.56;6010208;23;20034;-68
2023/01/20 02:22:41;;;;;;;4.85;4.45;;;;;;;-0.14;100.00;100708.91;6040604;23;20035;-68
2023/01/20 02:25:16;;;;;;;3.25;3.15;;;;;;;-0.07;100.00;100709.72;6036582;23;20020;-68
2023/01/20 02:28:26;;;;;;;3.53;3.28;;;;;;;-0.02;100.00;100713.09;6019128;23;20030;-67
2023/01/20 02:31:15;;;;;;;12.60;3.58;;;;;;;-0.05;100.00;100713.13;6007507;23;20250;-68
2023/01/20 02:33:49;;;;;;;3.78;3.58;;;;;;;-0.06;100.00;100711.41;6014974;23;20103;-68
2023/01/20 02:36:38;;;;;;;3.30;2.85;;;;;;;-0.68;100.00;100601.06;6018401;23;20043;-67
2023/01/20 02:39:19;;;;;;;4.53;4.22;;;;;;;-0.01;100.00;100717.41;6038245;23;20014;-67
2023/01/20 02:42:09;;;;;;;5.53;4.25;;;;;;;-0.22;100.00;100684.88;6007172;23;20035;-67
2023/01/20 02:44:58;;;;;;;4.10;3.80;;;;;;;-0.06;100.00;100695.94;6039153;23;20712;-67
2023/01/20 02:47:40;;;;;;;3.58;3.35;;;;;;;0.01;100.00;100720.81;6004260;23;20597;-68
2023/01/20 02:50:43;;;;;;;4.30;4.05;;;;;;;0.01;100.00;100718.25;6040829;23;20002;-68
2023/01/20 02:53:11;;;;;;;;;;;;;;;0.01;100.00;100717.41;6008366;23;20059;-68
2023/01/20 02:55:45;;;;;;;4.05;3.75;;;;;;;0.01;100.00;100714.81;6040622;23;19932;-68
2023/01/20 02:58:28;;;;;;;3.75;3.55;;;;;;;-0.68;100.00;100603.63;6016288;23;20033;-68
2023/01/20 03:01:04;;;;;;;4.18;3.97;;;;;;;-0.24;100.00;100676.31;6039785;23;20575;-68
2023/01/20 03:03:38;;;;;;;3.78;3.58;;;;;;;-0.02;100.00;100715.69;6011833;23;20034;-68
2023/01/20 03:06:10;;;;;;;5.75;4.32;;;;;;;-0.43;100.00;100655.84;6037844;23;20363;-67
2023/01/20 03:08:39;;;;;;;;;;;;;;;-0.05;100.00;100724.31;6004550;23;20043;-67
2023/01/20 03:11:07;;;;;;;3.90;3.70;;;;;;;-0.05;100.00;100726.03;6038924;23;20631;-67
2023/01/20 03:13:47;;;;;;;3.08;2.97;;;;;;;-0.41;100.00;100648.09;6005963;23;20019;-67
2023/01/20 03:16:18;;;;;;;3.33;3.22;;;;;;;0.01;100.00;100719.97;6038128;23;20304;-69
2023/01/20 03:18:45;;;;;;;3.70;3.50;;;;;;;-0.05;100.00;100734.63;6012949;23;20110;-67
2023/01/20 03:21:12;;;;;;;3.80;3.65;;;;;;;0.04;100.00;100725.09;6037927;23;20037;-67
2023/01/20 03:23:43;;;;;;;10.38;5.85;;;;;;;-0.51;100.00;100642.16;6035824;23;20085;-67
2023/01/20 03:26:12;;;;;;;4.53;4.32;;;;;;;-0.05;100.00;100721.72;6035604;23;20657;-67
2023/01/20 03:28:43;;;;;;;3.92;3.72;;;;;;;0.04;100.00;100744.03;6015164;23;20037;-67
2023/01/20 03:31:16;;;;;;;3.42;3.10;;;;;;;-0.23;100.00;100683.19;6044428;23;20023;-67
2023/01/20 03:33:47;;;;;;;3.30;3.00;;;;;;;-0.38;100.00;100681.59;6008411;23;20680;-67
2023/01/20 03:36:15;;;;;;;3.42;3.22;;;;;;;-0.50;100.00;100649.03;6014164;23;20035;-67
2023/01/20 03:38:43;;;;;;;3.55;3.35;;;;;;;-0.48;100.00;100662.75;6032977;23;20097;-69
2023/01/20 03:41:36;;;;;;;4.18;3.78;;;;;;;-0.16;100.00;100702.03;6015054;23;20042;-67
2023/01/20 03:44:15;;;;;;;5.63;5.13;;;;;;;-0.33;100.00;100678.97;6002988;23;20045;-68
2023/01/20 03:46:51;;;;;;;4.20;3.95;;;;;;;0.08;100.00;100750.00;6037663;23;20371;-67
2023/01/20 03:49:26;;;;;;;5.10;4.60;;;;;;;0.04;100.00;100753.47;5985214;23;20042;-68
2023/01/20 03:52:00;;;;;;;4.72;4.43;;;;;;;-0.01;100.00;100754.38;6039812;23;20037;-67
2023/01/20 03:54:36;;;;;;;4.35;4.05;;;;;;;-0.19;100.00;100733.88;6003568;23;20042;-67
2023/01/20 03:57:09;;;;;;;3.50;3.30;;;;;;;-0.33;100.00;100730.56;6037855;23;20060;-68
2023/01/20 03:59:38;;;;;;;3.50;3.33;;;;;;;-0.23;100.00;100745.94;6009682;23;20286;-68
2023/01/20 04:02:07;;;;;;;4.95;4.45;;;;;;;-0.29;100.00;100752.88;6035067;23;20026;-67
2023/01/20 04:04:37;;;;;;;3.80;3.60;;;;;;;-0.30;100.00;100754.59;5996993;23;20088;-68
2023/01/20 04:07:13;;;;;;;4.07;3.75;;;;;;;-0.34;100.00;100765.81;6016709;23;20105;-68
2023/01/20 04:09:44;;;;;;;3.42;3.22;;;;;;;-0.43;100.00;100774.44;6002499;23;20023;-68
2023/01/20 04:12:11;;;;;;;2.97;2.83;;;;;;;-0.53;100.00;100770.19;6041194;23;20023;-68
2023/01/20 04:14:37;;;;;;;4.15;3.85;;;;;;;-0.68;100.00;100745.38;6008869;23;20284;-67
2023/01/20 04:17:06;;;;;;;3.50;3.30;;;;;;;-1.63;100.00;100615.28;6041492;23;20014;-68
2023/01/20 04:19:32;;;;;;;4.88;4.38;;;;;;;-0.84;100.00;100756.63;5979928;23;20057;-68
2023/01/20 04:22:28;;;;;;;4.10;3.90;;;;;;;-0.85;100.00;100776.34;6040446;23;20035;-68
2023/01/20 04:25:23;;;;;;;3.00;2.90;;;;;;;-0.89;100.00;100826.19;6005693;23;20026;-68
2023/01/20 04:27:50;;;;;;;3.35;3.15;;;;;;;-1.57;100.00;100667.59;6033294;23;20031;-68
2023/01/20 04:30:16;;;;;;;3.83;3.55;;;;;;;-0.82;100.00;100778.94;6007462;23;20058;-67
2023/01/20 04:32:43;;;;;;;4.03;3.72;;;;;;;-0.85;100.00;100778.94;6027831;23;20015;-68
2023/01/20 04:35:14;;;;;;;3.80;3.65;;;;;;;-0.78;100.00;100786.63;6008752;23;20030;-67
2023/01/20 04:37:41;;;;;;;3.03;2.92;;;;;;;-0.96;100.00;100761.78;6041830;23;20509;-67
2023/01/20 04:40:08;;;;;;;3.45;3.22;;;;;;;-1.31;100.00;100725.00;6015127;23;20446;-67
2023/01/20 04:42:35;;;;;;;3.50;3.30;;;;;;;-1.21;100.00;100743.88;6037304;23;20372;-69
2023/01/20 04:45:02;;;;;;;4.05;3.85;;;;;;;-2.57;100.00;100524.69;6005027;23;20321;-69
2023/01/20 04:47:32;;;;;;;3.22;3.05;;;;;;;-1.17;100.00;100763.59;6035136;23;20037;-68
2023/01/20 04:49:59;;;;;;;3.53;3.22;;;;;;;-1.03;100.00;100797.03;6006717;23;20094;-67
2023/01/20 04:52:25;;;;;;;4.45;4.15;;;;;;;-1.02;100.00;100796.19;6038054;23;20034;-67
2023/01/20 04:54:51;;;;;;;3.45;3.35;;;;;;;-0.96;100.00;100798.75;6011229;23;20049;-67
2023/01/20 04:57:18;;;;;;;2.45;2.35;;;;;;;-0.89;100.00;100808.13;6037923;23;20609;-67
2023/01/20 04:59:44;;;;;;;4.63;4.22;;;;;;;-0.75;100.00;100796.94;6011656;23;20049;-67
2023/01/20 05:02:11;;;;;;;4.60;4.20;;;;;;;-0.79;100.00;100800.41;6030919;23;20141;-67
2023/01/20 05:04:37;;;;;;;3.95;3.75;;;;;;;-0.60;100.00;100802.03;6008852;23;20085;-67
2023/01/20 05:07:04;;;;;;;3.88;3.63;;;;;;;-0.62;100.00;100799.47;6030652;23;20033;-67
2023/01/20 05:09:33;;;;;;;3.53;3.33;;;;;;;-0.76;100.00;100780.63;6011194;23;20050;-67
2023/01/20 05:12:00;;;;;;;5.47;3.38;;;;;;;-0.92;100.00;100776.38;6030534;23;20034;-68
2023/01/20 05:14:26;;;;;;;4.03;3.83;;;;;;;-0.65;100.00;100811.50;6024895;23;20027;-69
2023/01/20 05:16:53;;;;;;;3.70;3.40;;;;;;;-1.07;100.00;100738.66;6030387;23;20113;-68
2023/01/20 05:19:19;;;;;;;4.13;3.78;;;;;;;-0.54;100.00;100807.16;6008633;23;20031;-67
2023/01/20 05:21:45;;;;;;;3.10;3.00;;;;;;;-0.52;100.00;100794.25;6034863;23;20014;-68
2023/01/20 05:24:12;;;;;;;5.18;3.40;;;;;;;-0.38;100.00;100822.53;6006424;23;21663;-67
2023/01/20 05:26:39;;;;;;;4.28;3.95;;;;;;;-0.85;100.00;100735.13;6014470;23;20049;-67
2023/01/20 05:29:05;;;;;;;3.88;3.65;;;;;;;-0.32;100.00;100823.38;6031637;23;20096;-67
2023/01/20 05:31:32;;;;;;;3.85;3.65;;;;;;;-0.55;100.00;100802.84;6041462;23;20140;-68
2023/01/20 05:33:58;;;;;;;5.90;3.53;;;;;;;-0.35;100.00;100833.69;6001545;23;20035;-68
2023/01/20 05:36:27;;;;;;;3.90;3.65;;;;;;;-0.89;100.00;100741.16;6034094;23;20038;-68
2023/01/20 05:38:54;;;;;;;3.50;3.30;;;;;;;-0.33;100.00;100831.97;6005241;23;20029;-68
2023/01/20 05:41:20;;;;;;;4.05;3.85;;;;;;;-0.32;100.00;100825.97;6031623;23;20106;-68
2023/01/20 05:43:47;;;;;;;6.35;4.57;;;;;;;-1.45;100.00;100677.88;6027974;23;20426;-68
2023/01/20 05:46:14;;;;;;;5.05;4.68;;;;;;;-0.46;100.00;100820.88;6017574;23;20022;-68
2023/01/20 05:48:40;;;;;;;3.22;3.08;;;;;;;-0.52;100.00;100805.44;6004076;23;20032;-67
2023/01/20 05:51:07;;;;;;;3.50;3.30;;;;;;;-0.86;100.00;100748.88;6034213;23;20050;-68
2023/01/20 05:53:33;;;;;;;4.30;4.10;;;;;;;-0.29;100.00;100832.81;6000008;23;20073;-68
2023/01/20 05:56:02;;;;;;;3.00;2.90;;;;;;;-0.26;100.00;100832.78;6032742;23;20035;-68
2023/01/20 05:58:29;;;;;;;3.97;3.78;;;;;;;-0.25;100.00;100839.66;6005906;23;20121;-68
2023/01/20 06:01:06;;;;;;;3.58;3.38;;;;;;;-0.47;100.00;100795.09;6015970;23;20618;-68
2023/01/20 06:03:33;;;;;;;5.22;4.80;;;;;;;-0.72;100.00;100781.44;6014432;23;20041;-68
2023/01/20 06:06:01;;;;;;;3.17;2.97;;;;;;;-0.06;100.00;100846.44;6039162;23;20030;-67
2023/01/20 06:08:28;;;;;;;3.60;3.40;;;;;;;-0.07;100.00;100856.75;6007790;23;20042;-68
2023/01/20 06:10:57;;;;;;;4.35;4.03;;;;;;;-0.39;100.00;100801.06;6003141;23;20088;-68
2023/01/20 06:13:23;;;;;;;3.08;2.95;;;;;;;-0.11;100.00;100863.66;6032403;23;20480;-67
2023/01/20 06:15:54;;;;;;;3.70;3.50;;;;;;;-0.10;100.00;100861.91;6037297;23;20050;-67
2023/01/20 06:18:21;;;;;;;4.55;4.25;;;;;;;-0.49;100.00;100800.25;5991856;23;20030;-67
2023/01/20 06:20:48;;;;;;;4.78;4.47;;;;;;;-0.77;100.00;100760.88;6038334;23;20048;-67
2023/01/20 06:23:15;;;;;;;3.50;3.30;;;;;;;-0.09;100.00;100856.75;6030836;23;20034;-67
2023/01/20 06:25:41;;;;;;;4.03;3.83;;;;;;;-0.48;100.00;100799.41;6033941;23;20073;-68
2023/01/20 06:28:08;;;;;;;5.15;4.85;;;;;;;-0.14;100.00;100853.38;6035690;23;20047;-67
2023/01/20 06:30:34;;;;;;;3.92;3.72;;;;;;;-0.88;100.00;100730.00;6042123;23;20027;-67
2023/01/20 06:33:01;;;;;;;4.18;3.88;;;;;;;-0.05;100.00;100867.94;6005411;23;20475;-67
2023/01/20 06:35:27;;;;;;;3.90;3.70;;;;;;;-0.03;100.00;100863.63;6040507;23;20050;-67
2023/01/20 06:37:57;;;;;;;3.60;3.40;;;;;;;-0.04;100.00;100870.50;5989629;23;20094;-67
2023/01/20 06:40:23;;;;;;;3.65;3.50;;;;;;;-0.31;100.00;100816.50;6033417;23;20632;-68
2023/01/20 06:42:50;;;;;;;3.45;3.25;;;;;;;-0.64;100.00;100764.25;6035805;23;20378;-68
2023/01/20 06:45:16;;;;;;;3.35;3.22;;;;;;;-0.30;100.00;100823.34;6018987;23;20011;-68
2023/01/20 06:47:42;;;;;;;3.80;3.45;;;;;;;0.01;100.00;100878.22;6015360;23;20047;-68
2023/01/20 06:50:09;;;;;;;3.85;3.65;;;;;;;-0.59;100.00;100803.72;5998901;23;20031;-68
2023/01/20 06:52:35;;;;;;;3.60;3.40;;;;;;;0.05;100.00;100889.38;6029040;23;20023;-67
2023/01/20 06:55:02;;;;;;;3.17;3.08;;;;;;;-0.24;100.00;100849.97;6007152;23;20019;-68
2023/01/20 06:57:31;;;;;;;4.97;3.80;;;;;;;0.06;100.00;100897.13;6011410;23;20066;-68
2023/01/20 06:59:58;;;;;;;4.55;4.25;;;;;;;0.05;100.00;100894.53;6007751;23;20434;-68
2023/01/20 07:02:24;;;;;;;3.95;3.65;;;;;;;0.05;100.00;100895.38;6043447;23;20185;-68
2023/01/20 07:04:52;;;;;;;4.05;3.85;;;;;;;-0.69;100.00;100774.56;6006151;23;20030;-68
2023/01/20 07:07:18;;;;;;;7.22;3.78;;;;;;;0.06;100.00;100903.97;6048018;23;20019;-69
2023/01/20 07:09:44;;;;;;;4.20;3.90;;;;;;;0.08;100.00;100907.41;6036280;23;20098;-68
2023/01/20 07:12:11;;;;;;;4.35;4.05;;;;;;;0.09;100.00;100907.41;5993334;23;20034;-67
2023/01/20 07:14:37;;;;;;;4.38;4.15;;;;;;;0.11;100.00;100907.41;6039538;23;20579;-67
2023/01/20 07:17:10;;;;;;;4.28;3.97;;;;;;;-0.70;100.00;100774.56;6041209;23;20022;-67
2023/01/20 07:19:36;;;;;;;4.40;3.65;;;;;;;0.10;100.00;100908.25;6043845;23;20018;-68
2023/01/20 07:22:02;;;;;;;4.10;3.80;;;;;;;0.11;100.00;100908.25;6035049;23;20019;-68
2023/01/20 07:24:29;;;;;;;3.78;3.50;;;;;;;0.11;100.00;100909.97;6013742;23;20046;-68
2023/01/20 07:26:55;;;;;;;3.55;3.35;;;;;;;0.14;100.00;100920.25;6015462;23;20030;-68
2023/01/20 07:29:22;;;;;;;5.28;4.97;;;;;;;-0.10;100.00;100885.13;6019159;23;20281;-68
2023/01/20 07:31:48;;;;;;;3.80;3.47;;;;;;;0.14;100.00;100921.16;6041535;23;20099;-68
2023/01/20 07:34:14;;;;;;;5.00;4.60;;;;;;;-0.26;100.00;100858.56;6038228;23;20026;-68
2023/01/20 07:36:41;;;;;;;4.53;4.18;;;;;;;0.15;100.00;100928.00;6039416;23;20097;-68
2023/01/20 07:39:09;;;;;;;4.07;3.78;;;;;;;0.14;100.00;100930.59;6042284;23;20035;-68
2023/01/20 07:41:36;;;;;;;4.53;4.13;;;;;;;0.16;100.00;100941.75;6012517;23;20034;-70
2023/01/20 07:44:02;;;;;;;4.45;3.78;;;;;;;-1.00;100.00;100745.53;6035362;23;20462;-71
2023/01/20 07:46:29;;;;;;;4.70;4.40;;;;;;;0.19;100.00;100945.19;6008640;23;20122;-70
2023/01/20 07:48:55;;;;;;;3.88;3.65;;;;;;;-0.19;100.00;100875.72;6038122;23;20026;-70
2023/01/20 07:51:22;;;;;;;5.32;4.10;;;;;;;0.20;100.00;100956.34;6002344;23;20137;-70
2023/01/20 07:53:50;;;;;;;5.13;4.38;;;;;;;0.24;100.00;100955.50;6032384;23;20054;-70
2023/01/20 07:56:20;;;;;;;6.25;5.85;;;;;;;-1.04;100.00;100749.81;6024252;23;20163;-71
2023/01/20 07:58:49;;;;;;;3.88;3.58;;;;;;;0.23;100.00;100958.94;6014616;23;20043;-70
2023/01/20 08:01:33;;;;;;;4.75;4.45;;;;;;;-0.32;100.00;100866.34;6020865;23;20090;-70
2023/01/20 08:04:00;;;;;;;6.68;3.45;;;;;;;-0.24;100.00;100890.34;6036412;23;20103;-70
2023/01/20 08:06:27;;;;;;;4.38;4.03;;;;;;;0.21;100.00;100959.81;6005227;23;20117;-70
2023/01/20 08:08:54;;;;;;;13.43;5.13;;;;;;;0.37;100.00;100975.19;6010288;23;20015;-70
2023/01/20 08:11:24;;;;;;;3.75;3.50;;;;;;;0.17;100.00;100940.91;6007330;23;20078;-70
2023/01/20 08:13:51;;;;;;;5.15;4.15;;;;;;;-0.02;100.00;100920.38;6029626;23;20473;-70
2023/01/20 08:16:17;;;;;;;6.78;5.53;;;;;;;-0.03;100.00;100913.47;6007291;23;20027;-71
2023/01/20 08:18:47;;;;;;;5.40;4.97;;;;;;;0.39;100.00;100976.06;6037682;23;20068;-71
2023/01/20 08:21:19;;;;;;;4.20;3.75;;;;;;;-0.53;100.00;100833.78;6002121;23;20207;-71
2023/01/20 08:23:46;;;;;;;4.22;3.92;;;;;;;-0.45;100.00;100832.03;6035571;23;20454;-72
2023/01/20 08:26:13;;;;;;;4.78;4.47;;;;;;;-0.12;100.00;100903.22;6005866;23;20161;-70
2023/01/20 08:28:40;;;;;;;3.38;3.17;;;;;;;-0.15;100.00;100903.22;6009690;23;20018;-71
2023/01/20 08:31:11;;;;;;;4.07;3.88;;;;;;;0.50;100.00;100994.06;6002109;23;20037;-71
2023/01/20 08:33:39;;;;;;;4.43;3.88;;;;;;;-0.90;100.00;100785.84;6031660;23;20027;-71
2023/01/20 08:36:20;;;;;;;5.38;4.97;;;;;;;0.62;100.00;100995.69;6008878;23;20052;-71
2023/01/20 08:38:48;;;;;;;3.13;3.03;;;;;;;0.70;100.00;100999.13;6032461;23;20026;-71
2023/01/20 08:41:18;;;;;;;5.00;4.57;;;;;;;0.63;100.00;100981.94;6005243;23;20123;-71
2023/01/20 08:43:45;;;;;;;3.60;3.30;;;;;;;0.07;100.00;100882.47;6038235;23;20089;-71
2023/01/20 08:46:14;;;;;;;4.80;4.22;;;;;;;0.90;100.00;101011.00;6009399;23;20599;-71
2023/01/20 08:48:41;;;;;;;4.25;3.80;;;;;;;0.88;100.00;101005.00;6040615;23;20050;-71
2023/01/20 08:51:16;;;;;;;4.70;4.40;;;;;;;0.93;100.00;101005.84;6023292;23;20223;-70
2023/01/20 08:53:42;;;;;;;3.08;2.97;;;;;;;0.46;100.00;100921.78;6033807;23;20015;-70
2023/01/20 08:56:10;;;;;;;3.35;3.25;;;;;;;0.98;100.00;100998.91;6006933;23;20279;-71
2023/01/20 08:58:37;;;;;;;4.30;4.00;;;;;;;1.10;100.00;101008.28;6012415;23;20027;-71
2023/01/20 09:01:13;;;;;;;3.70;3.50;;;;;;;0.42;100.00;100902.88;6036102;23;20458;-70
2023/01/20 09:03:40;;;;;;;4.03;3.80;;;;;;;0.71;100.00;100951.75;6009988;23;20086;-72
2023/01/20 09:06:15;;;;;;;4.78;4.32;;;;;;;1.11;100.00;101012.59;6031962;23;20247;-73
2023/01/20 09:08:42;;;;;;;3.72;3.53;;;;;;;1.19;100.00;101010.81;5997048;23;20023;-72
2023/01/20 09:11:15;;;;;;;4.88;4.50;;;;;;;1.26;100.00;101017.63;6010068;23;20217;-71
2023/01/20 09:13:41;;;;;;;5.40;4.28;;;;;;;0.79;100.00;100947.38;6006190;23;20025;-72
2023/01/20 09:16:11;;;;;;;3.85;3.63;;;;;;;1.23;100.00;101019.41;6035179;23;20316;-72
2023/01/20 09:18:38;;;;;;;3.90;3.50;;;;;;;0.99;100.00;100959.28;6011268;23;20453;-72
2023/01/20 09:21:05;;;;;;;3.08;2.97;;;;;;;1.07;100.00;100949.72;6038643;23;20037;-72
2023/01/20 09:23:37;;;;;;;3.58;3.38;;;;;;;1.53;100.00;101026.88;6030103;23;20700;-74
2023/01/20 09:26:06;;;;;;;4.18;3.88;;;;;;;1.57;100.00;101013.03;6021889;23;20153;-71
2023/01/20 09:28:32;;;;;;;4.30;4.05;;;;;;;1.52;100.00;101019.97;6007369;23;20160;-70
2023/01/20 09:31:03;;;;;;;4.00;3.80;;;;;;;1.51;100.00;101007.91;6027550;23;20256;-72
2023/01/20 09:33:30;;;;;;;6.18;3.97;;;;;;;1.54;100.00;101014.78;6033907;23;20062;-71
2023/01/20 09:35:58;;;;;;;7.60;4.57;;;;;;;0.59;100.00;100869.19;6032351;23;20025;-70
2023/01/20 09:44:41;;;;;;;6.82;4.25;;;;;;;1.25;100.00;101028.84;6003883;23;20041;-71
2023/01/20 09:47:21;;;;;;;3.58;3.30;;;;;;;1.27;100.00;101026.25;6030606;23;20023;-71
2023/01/20 09:53:07;;;;;;;4.95;3.72;;;;;;;1.07;100.00;100992.81;6027130;23;20084;-71
2023/01/20 09:55:43;;;;;;;2.90;2.80;;;;;;;1.33;100.00;101026.19;6009806;23;20272;-71
2023/01/20 09:58:24;;;;;;;6.57;3.88;;;;;;;1.20;100.00;100999.56;6033640;23;20528;-73
2023/01/20 10:01:09;;;;;;;3.53;3.28;;;;;;;1.16;100.00;101029.78;6009159;23;20015;-72
2023/01/20 10:03:48;;;;;;;4.55;4.22;;;;;;;1.28;100.00;101021.03;6006869;23;20675;-72
2023/01/20 10:07:10;;;;;;;14.48;13.77;;;;;;;0.66;100.00;100935.44;5959207;23;20024;-73
2023/01/20 10:09:58;;;;;;;3.88;3.38;;;;;;;0.94;100.00;100969.66;6027714;23;20181;-72
2023/01/20 10:12:34;;;;;;;3.47;3.28;;;;;;;1.40;100.00;101027.84;6003723;23;20368;-72
2023/01/20 10:15:12;;;;;;;5.85;3.80;;;;;;;1.48;100.00;101030.34;6028662;23;20023;-72
2023/01/20 10:17:43;;;;;;;3.05;2.95;;;;;;;0.23;100.00;100824.72;6034154;23;20029;-71
2023/01/20 10:20:54;;;;;;;3.45;3.25;;;;;;;1.51;100.00;101023.44;5999386;23;20023;-72
2023/01/20 10:23:41;;;;;;;3.95;3.65;;;;;;;1.45;100.00;101031.25;5919220;23;20027;-73
2023/01/20 10:26:23;;;;;;;3.83;3.53;;;;;;;0.18;100.00;100804.13;6022871;23;20019;-72
2023/01/20 10:29:01;;;;;;;3.97;3.65;;;;;;;1.68;100.00;101014.66;6007432;23;20027;-72
2023/01/20 10:31:32;;;;;;;3.22;3.10;;;;;;;1.05;100.00;100886.00;6032268;23;20259;-72
2023/01/20 10:34:07;;;;;;;2.90;2.80;;;;;;;1.98;100.00;101003.09;5996541;23;20295;-72
2023/01/20 10:36:34;;;;;;;6.90;3.47;;;;;;;2.23;100.00;101011.44;6040103;23;20014;-72
2023/01/20 10:39:04;;;;;;;3.70;3.28;;;;;;;2.19;100.00;100991.63;6021853;23;20035;-71
2023/01/20 10:41:40;;;;;;;4.53;4.22;;;;;;;2.23;100.00;101008.00;6035333;23;20406;-72
2023/01/20 10:44:12;;;;;;;4.85;4.05;;;;;;;2.28;100.00;101014.78;5979142;23;20308;-73
2023/01/20 10:47:02;;;;;;;3.47;3.35;;;;;;;2.22;100.00;101014.03;6037352;23;20027;-73
2023/01/20 10:50:00;;;;;;;11.15;3.70;;;;;;;2.24;100.00;101007.94;5997275;23;20015;-72
2023/01/20 10:52:33;;;;;;;4.45;4.15;;;;;;;2.30;100.00;101007.88;6025515;23;20088;-72
2023/01/20 10:55:17;;;;;;;3.50;3.40;;;;;;;1.82;100.00;100966.19;6003631;23;20093;-73
2023/01/20 10:57:50;;;;;;;3.97;3.78;;;;;;;1.70;100.00;100933.53;6032881;23;20089;-73
2023/01/20 11:00:24;;;;;;;3.85;3.65;;;;;;;1.93;100.00;100972.09;6033787;23;20039;-73
2023/01/20 11:02:52;;;;;;;4.60;4.20;;;;;;;1.94;100.00;100971.19;6015846;23;20339;-73
2023/01/20 11:05:23;;;;;;;4.05;3.53;;;;;;;2.16;100.00;100999.41;6003948;23;20315;-73
2023/01/20 11:07:52;;;;;;;4.25;4.05;;;;;;;2.15;100.00;100988.22;6038259;23;20026;-72
2023/01/20 11:10:25;;;;;;;4.53;4.15;;;;;;;2.15;100.00;100995.13;6015997;23;20323;-73
2023/01/20 11:12:56;;;;;;;7.57;4.38;;;;;;;1.92;100.00;100954.00;6034273;23;20441;-73
2023/01/20 11:15:32;;;;;;;4.25;3.95;;;;;;;2.16;100.00;100997.69;6043520;23;20018;-73
2023/01/20 11:18:13;;;;;;;4.68;4.25;;;;;;;2.38;100.00;100984.47;6012806;23;20023;-73
2023/01/20 11:20:46;;;;;;;4.70;4.30;;;;;;;2.40;100.00;100982.69;6011582;23;20129;-73
2023/01/20 11:23:32;;;;;;;4.35;3.65;;;;;;;2.12;100.00;100910.56;6015337;23;20073;-73
2023/01/20 11:26:22;;;;;;;3.15;3.05;;;;;;;2.68;100.00;100971.94;6036779;23;20047;-72
2023/01/20 11:28:53;;;;;;;4.20;4.00;;;;;;;2.36;100.00;100914.53;6030714;23;20034;-72
2023/01/20 11:31:33;;;;;;;4.32;3.97;;;;;;;2.80;100.00;100982.13;6026425;23;20453;-73
2023/01/20 11:34:18;;;;;;;3.78;3.50;;;;;;;2.73;100.00;100981.38;6034968;23;19999;-73
2023/01/20 11:36:45;;;;;;;3.33;3.15;;;;;;;2.75;100.00;100974.44;6019132;23;20039;-73
2023/01/20 11:39:34;;;;;;;4.15;3.92;;;;;;;2.55;100.00;100930.69;6029050;23;20031;-73
2023/01/20 11:42:24;;;;;;;4.25;3.95;;;;;;;2.81;100.00;100968.28;6024923;23;20042;-72
2023/01/20 11:44:53;;;;;;;3.92;3.72;;;;;;;2.75;100.00;100958.88;6035763;23;20074;-73
2023/01/20 11:47:20;;;;;;;4.03;3.75;;;;;;;2.76;100.00;100973.53;6050120;23;20034;-73